createdAt,value
2018-03-01T00:02:07.903Z,6.05
2018-03-01T00:04:35.573Z,5.68
2018-03-01T00:07:02.395Z,6.62
2018-03-01T00:09:29.574Z,7.10
2018-03-01T00:11:56.400Z,5.90
2018-03-01T00:14:23.447Z,5.45
2018-03-01T00:16:50.343Z,5.47
2018-03-01T00:19:17.187Z,7.15
2018-03-01T00:21:44.296Z,5.95
2018-03-01T00:24:11.343Z,6.50
2018-03-01T00:26:38.196Z,6.32
2018-03-01T00:29:05.330Z,7.93
2018-03-01T00:31:32.487Z,8.85
2018-03-01T00:33:59.294Z,5.18
2018-03-01T00:36:26.103Z,7.47
2018-03-01T00:38:53.216Z,6.83
2018-03-01T00:41:20.064Z,6.53
2018-03-01T00:43:46.916Z,5.20
2018-03-01T00:46:13.780Z,5.20
2018-03-01T00:48:40.594Z,5.05
2018-03-01T00:51:07.740Z,6.15
2018-03-01T00:53:34.608Z,7.20
2018-03-01T00:56:01.415Z,5.62
2018-03-01T00:58:28.223Z,7.68
2018-03-01T01:00:55.059Z,4.82
2018-03-01T01:03:22.159Z,5.80
2018-03-01T01:05:48.974Z,6.85
2018-03-01T01:08:15.836Z,6.50
2018-03-01T01:10:42.643Z,4.03
2018-03-01T01:13:09.777Z,4.82
2018-03-01T01:15:36.612Z,6.80
2018-03-01T01:18:03.727Z,5.60
2018-03-01T01:20:30.876Z,4.80
2018-03-01T01:22:57.752Z,5.70
2018-03-01T01:25:24.589Z,4.50
2018-03-01T01:27:51.407Z,3.97
2018-03-01T01:30:18.263Z,4.47
2018-03-01T01:32:45.190Z,3.87
2018-03-01T01:35:12.025Z,3.47
2018-03-01T01:37:38.871Z,3.10
2018-03-01T01:40:05.926Z,3.78
2018-03-01T01:42:33.903Z,3.20
2018-03-01T01:45:01.055Z,4.00
2018-03-01T01:47:27.870Z,3.37
2018-03-01T01:49:54.687Z,3.80
2018-03-01T01:52:21.556Z,3.65
2018-03-01T01:54:48.626Z,3.90
2018-03-01T01:57:15.472Z,3.00
2018-03-01T01:59:42.629Z,3.72
2018-03-01T02:02:09.533Z,3.60
2018-03-01T02:04:36.376Z,4.20
2018-03-01T02:07:03.232Z,3.03
2018-03-01T02:09:30.081Z,4.40
2018-03-01T02:11:57.261Z,3.07
2018-03-01T02:14:24.117Z,3.92
2018-03-01T02:16:50.939Z,3.30
2018-03-01T02:19:17.755Z,4.18
2018-03-01T02:21:44.610Z,3.90
2018-03-01T02:24:11.426Z,3.67
2018-03-01T02:26:38.273Z,3.90
2018-03-01T02:29:05.351Z,3.42
2018-03-01T02:31:32.508Z,16.50
2018-03-01T02:33:59.359Z,3.65
2018-03-01T02:36:31.525Z,5.60
2018-03-01T02:38:58.365Z,4.47
2018-03-01T02:41:25.241Z,3.10
2018-03-01T02:43:52.361Z,3.53
2018-03-01T02:46:19.500Z,3.80
2018-03-01T02:48:46.763Z,4.28
2018-03-01T02:51:13.681Z,3.30
2018-03-01T02:53:40.568Z,3.08
2018-03-01T02:56:07.404Z,3.78
2018-03-01T02:58:34.541Z,3.65
2018-03-01T03:01:01.347Z,3.67
2018-03-01T03:03:28.167Z,5.37
2018-03-01T03:05:55.276Z,4.60
2018-03-01T03:08:22.087Z,3.47
2018-03-01T03:10:48.936Z,4.03
2018-03-01T03:13:15.779Z,3.17
2018-03-01T03:15:42.817Z,3.67
2018-03-01T03:18:09.895Z,3.28
2018-03-01T03:20:37.055Z,3.30
2018-03-01T03:23:04.201Z,4.37
2018-03-01T03:25:31.054Z,3.70
2018-03-01T03:27:57.891Z,3.53
2018-03-01T03:30:24.704Z,2.80
2018-03-01T03:32:51.530Z,6.20
2018-03-01T03:35:18.725Z,4.18
2018-03-01T03:37:45.876Z,3.33
2018-03-01T03:40:12.711Z,4.20
2018-03-01T03:42:39.543Z,4.03
2018-03-01T03:45:06.358Z,5.20
2018-03-01T03:47:33.460Z,6.35
2018-03-01T03:50:00.330Z,4.00
2018-03-01T03:52:27.168Z,5.95
2018-03-01T03:54:54.036Z,5.22
2018-03-01T03:57:20.940Z,4.62
2018-03-01T03:59:47.801Z,4.07
2018-03-01T04:02:14.641Z,4.15
2018-03-01T04:04:41.760Z,4.10
2018-03-01T04:07:08.596Z,4.30
2018-03-01T04:09:35.452Z,7.90
2018-03-01T04:12:02.347Z,7.22
2018-03-01T04:14:29.195Z,4.00
2018-03-01T04:16:56.022Z,4.32
2018-03-01T04:19:22.884Z,6.95
2018-03-01T04:21:49.687Z,4.45
2018-03-01T04:24:16.507Z,4.40
2018-03-01T04:26:43.339Z,6.00
2018-03-01T04:29:10.506Z,4.80
2018-03-01T04:31:37.652Z,5.90
2018-03-01T04:34:04.804Z,5.50
2018-03-01T04:36:31.641Z,6.85
2018-03-01T04:38:58.790Z,4.50
2018-03-01T04:41:25.651Z,6.90
2018-03-01T04:43:52.454Z,4.00
2018-03-01T04:46:19.293Z,6.93
2018-03-01T04:48:46.366Z,8.05
2018-03-01T04:51:13.276Z,4.53
2018-03-01T04:53:40.363Z,5.45
2018-03-01T04:56:07.225Z,6.00
2018-03-01T04:58:34.365Z,5.22
2018-03-01T05:01:01.184Z,5.43
2018-03-01T05:03:28.350Z,5.45
2018-03-01T05:05:55.398Z,5.37
2018-03-01T05:08:22.234Z,6.40
2018-03-01T05:10:49.088Z,5.20
2018-03-01T05:13:15.915Z,4.97
2018-03-01T05:15:43.000Z,5.07
2018-03-01T05:18:09.856Z,4.72
2018-03-01T05:20:36.967Z,6.40
2018-03-01T05:23:03.783Z,4.45
2018-03-01T05:25:30.680Z,7.28
2018-03-01T05:27:57.808Z,5.00
2018-03-01T05:30:24.912Z,6.20
2018-03-01T05:32:51.784Z,6.10
2018-03-01T05:35:18.594Z,6.15
2018-03-01T05:37:45.450Z,4.90
2018-03-01T05:40:12.294Z,5.18
2018-03-01T05:42:39.141Z,6.32
2018-03-01T05:45:05.959Z,4.97
2018-03-01T05:47:32.809Z,6.00
2018-03-01T05:49:59.619Z,6.53
2018-03-01T05:52:26.423Z,5.40
2018-03-01T05:54:53.298Z,6.30
2018-03-01T05:57:20.124Z,5.95
2018-03-01T05:59:46.964Z,5.45
2018-03-01T06:02:13.808Z,6.30
2018-03-01T06:04:40.619Z,6.68
2018-03-01T06:07:07.707Z,5.80
2018-03-01T06:09:34.861Z,8.00
2018-03-01T06:12:01.666Z,6.00
2018-03-01T06:14:28.496Z,7.78
2018-03-01T06:16:55.352Z,6.57
2018-03-01T06:19:22.164Z,7.12
2018-03-01T06:21:49.012Z,6.95
2018-03-01T06:24:15.882Z,9.85
2018-03-01T06:26:42.968Z,7.57
2018-03-01T06:29:09.803Z,8.23
2018-03-01T06:31:36.691Z,9.93
2018-03-01T06:34:03.799Z,8.10
2018-03-01T06:36:30.657Z,6.35
2018-03-01T06:38:58.282Z,8.65
2018-03-01T06:41:25.148Z,8.50
2018-03-01T06:43:51.959Z,8.10
2018-03-01T06:46:19.039Z,9.15
2018-03-01T06:48:45.891Z,8.13
2018-03-01T06:51:12.706Z,9.88
2018-03-01T06:53:39.531Z,6.75
2018-03-01T06:56:06.372Z,7.43
2018-03-01T06:58:33.215Z,8.25
2018-03-01T07:01:00.302Z,12.27
2018-03-01T07:03:27.124Z,8.80
2018-03-01T07:05:53.961Z,6.62
2018-03-01T07:08:20.820Z,7.55
2018-03-01T07:10:47.658Z,7.25
2018-03-01T07:13:14.504Z,7.70
2018-03-01T07:15:41.684Z,7.63
2018-03-01T07:18:08.824Z,7.70
2018-03-01T07:20:35.684Z,6.90
2018-03-01T07:23:02.544Z,7.75
2018-03-01T07:25:29.393Z,7.95
2018-03-01T07:27:56.232Z,6.23
2018-03-01T07:30:23.059Z,10.53
2018-03-01T07:32:50.192Z,8.90
2018-03-01T07:35:17.341Z,9.40
2018-03-01T07:37:44.217Z,5.82
2018-03-01T07:40:11.068Z,8.95
2018-03-01T07:42:38.955Z,7.80
2018-03-01T07:45:05.778Z,8.33
2018-03-01T07:47:32.996Z,7.47
2018-03-01T07:49:59.819Z,8.57
2018-03-01T07:52:26.709Z,5.90
2018-03-01T07:54:53.564Z,7.82
2018-03-01T07:57:20.663Z,7.30
2018-03-01T07:59:47.820Z,8.30
2018-03-01T08:02:14.676Z,8.52
2018-03-01T08:04:41.812Z,6.30
2018-03-01T08:07:08.959Z,8.35
2018-03-01T08:09:35.797Z,7.32
2018-03-01T08:12:02.679Z,6.75
2018-03-01T08:14:29.507Z,5.80
2018-03-01T08:16:56.353Z,8.23
2018-03-01T08:19:23.490Z,6.57
2018-03-01T08:21:50.348Z,6.90
2018-03-01T08:24:17.185Z,7.20
2018-03-01T08:26:44.325Z,9.30
2018-03-01T08:29:11.151Z,9.73
2018-03-01T08:31:37.994Z,6.40
2018-03-01T08:34:04.820Z,7.65
2018-03-01T08:36:32.006Z,13.10
2018-03-01T08:38:58.848Z,10.82
2018-03-01T08:41:25.696Z,10.02
2018-03-01T08:43:52.577Z,9.38
2018-03-01T08:46:19.421Z,9.15
2018-03-01T08:48:46.281Z,8.27
2018-03-01T08:51:13.116Z,9.03
2018-03-01T08:53:39.922Z,8.63
2018-03-01T08:56:06.767Z,8.75
2018-03-01T08:58:33.644Z,8.38
2018-03-01T09:01:00.461Z,10.20
2018-03-01T09:03:27.301Z,11.15
2018-03-01T09:05:54.139Z,13.18
2018-03-01T09:08:20.983Z,8.90
2018-03-01T09:10:48.121Z,8.48
2018-03-01T09:13:14.982Z,10.50
2018-03-01T09:15:41.837Z,10.98
2018-03-01T09:18:08.647Z,13.75
2018-03-01T09:20:35.510Z,8.32
2018-03-01T09:23:02.632Z,10.85
2018-03-01T09:25:29.473Z,9.57
2018-03-01T09:27:56.343Z,9.70
2018-03-01T09:30:23.476Z,10.90
2018-03-01T09:32:50.329Z,10.73
2018-03-01T09:35:17.207Z,7.78
2018-03-01T09:37:44.060Z,9.63
2018-03-01T09:40:10.965Z,9.05
2018-03-01T09:42:37.813Z,9.00
2018-03-01T09:45:04.665Z,9.27
2018-03-01T09:47:31.490Z,11.60
2018-03-01T09:49:58.364Z,9.88
2018-03-01T09:52:25.576Z,9.10
2018-03-01T09:54:52.720Z,9.40
2018-03-01T09:57:19.877Z,12.93
2018-03-01T09:59:46.694Z,9.68
2018-03-01T10:02:13.511Z,8.50
2018-03-01T10:04:40.349Z,9.65
2018-03-01T10:07:07.193Z,12.15
2018-03-01T10:09:34.052Z,11.00
2018-03-01T10:12:00.929Z,10.10
2018-03-01T10:14:27.746Z,8.63
2018-03-01T10:16:55.188Z,9.65
2018-03-01T10:19:22.280Z,10.68
2018-03-01T10:21:51.123Z,9.38
2018-03-01T10:24:17.981Z,9.00
2018-03-01T10:26:44.816Z,9.65
2018-03-01T10:29:11.909Z,9.48
2018-03-01T10:31:38.725Z,12.32
2018-03-01T10:34:05.645Z,10.75
2018-03-01T10:36:32.479Z,10.38
2018-03-01T10:38:59.438Z,12.60
2018-03-01T10:41:26.275Z,9.98
2018-03-01T10:43:53.374Z,11.07
2018-03-01T10:46:20.256Z,10.60
2018-03-01T10:48:47.116Z,6.50
2018-03-01T10:51:13.952Z,7.60
2018-03-01T10:53:40.759Z,6.07
2018-03-01T10:56:07.907Z,5.47
2018-03-01T10:58:34.761Z,7.93
2018-03-01T11:01:01.804Z,8.90
2018-03-01T11:03:28.968Z,7.97
2018-03-01T11:05:55.788Z,8.30
2018-03-01T11:08:22.633Z,6.85
2018-03-01T11:10:49.495Z,6.40
2018-03-01T11:13:16.335Z,9.27
2018-03-01T11:15:43.474Z,7.53
2018-03-01T11:18:10.619Z,9.23
2018-03-01T11:20:37.765Z,8.40
2018-03-01T11:23:04.917Z,8.25
2018-03-01T11:25:32.073Z,7.40
2018-03-01T11:27:59.225Z,9.82
2018-03-01T11:30:26.363Z,7.50
2018-03-01T11:32:53.515Z,9.40
2018-03-01T11:35:20.565Z,10.40
2018-03-01T11:37:47.716Z,7.80
2018-03-01T11:40:14.579Z,6.65
2018-03-01T11:42:41.420Z,9.90
2018-03-01T11:45:08.564Z,9.35
2018-03-01T11:47:35.699Z,6.30
2018-03-01T11:50:02.747Z,5.57
2018-03-01T11:52:29.563Z,6.30
2018-03-01T11:54:56.403Z,8.13
2018-03-01T11:57:23.297Z,7.80
2018-03-01T11:59:50.322Z,4.78
2018-03-01T12:02:17.480Z,12.07
2018-03-01T12:04:44.627Z,5.05
2018-03-01T12:07:11.432Z,5.80
2018-03-01T12:09:38.287Z,6.43
2018-03-01T12:12:05.463Z,4.00
2018-03-01T12:14:32.352Z,7.40
2018-03-01T12:16:59.212Z,7.10
2018-03-01T12:19:26.032Z,6.62
2018-03-01T12:21:52.880Z,5.70
2018-03-01T12:24:20.088Z,4.23
2018-03-01T12:26:46.891Z,8.77
2018-03-01T12:29:13.976Z,4.07
2018-03-01T12:31:40.840Z,4.25
2018-03-01T12:34:07.983Z,6.82
2018-03-01T12:36:34.856Z,3.78
2018-03-01T12:39:02.072Z,4.93
2018-03-01T12:41:28.911Z,5.07
2018-03-01T12:43:55.756Z,5.78
2018-03-01T12:46:22.903Z,4.23
2018-03-01T12:48:49.967Z,3.40
2018-03-01T12:51:17.103Z,6.40
2018-03-01T12:53:43.936Z,4.75
2018-03-01T12:56:11.108Z,6.20
2018-03-01T12:58:37.980Z,4.67
2018-03-01T13:01:04.844Z,5.32
2018-03-01T13:03:31.931Z,6.80
2018-03-01T13:05:58.769Z,5.55
2018-03-01T13:08:25.607Z,5.93
2018-03-01T13:10:52.423Z,3.75
2018-03-01T13:13:19.276Z,6.18
2018-03-01T13:15:46.460Z,5.78
2018-03-01T13:18:13.271Z,6.22
2018-03-01T13:20:40.121Z,7.22
2018-03-01T13:23:06.997Z,6.25
2018-03-01T13:25:33.801Z,7.75
2018-03-01T13:28:00.641Z,5.60
2018-03-01T13:30:27.471Z,5.22
2018-03-01T13:32:54.565Z,5.90
2018-03-01T13:35:21.376Z,7.28
2018-03-01T13:37:48.211Z,5.53
2018-03-01T13:40:15.404Z,4.90
2018-03-01T13:42:42.269Z,8.65
2018-03-01T13:45:09.121Z,6.37
2018-03-01T13:47:35.928Z,4.62
2018-03-01T13:50:03.079Z,4.07
2018-03-01T13:52:29.953Z,5.40
2018-03-01T13:54:56.759Z,6.77
2018-03-01T13:57:23.840Z,6.65
2018-03-01T13:59:50.684Z,4.35
2018-03-01T14:02:17.492Z,5.45
2018-03-01T14:04:44.312Z,9.10
2018-03-01T14:07:11.392Z,10.05
2018-03-01T14:09:38.248Z,5.53
2018-03-01T14:12:05.103Z,5.53
2018-03-01T14:14:32.328Z,6.75
2018-03-01T14:16:59.142Z,9.60
2018-03-01T14:19:25.965Z,5.80
2018-03-01T14:21:53.167Z,4.40
2018-03-01T14:24:19.976Z,5.60
2018-03-01T14:26:46.786Z,8.40
2018-03-01T14:29:13.906Z,4.20
2018-03-01T14:31:40.718Z,6.40
2018-03-01T14:34:07.904Z,4.97
2018-03-01T14:36:35.051Z,4.23
2018-03-01T14:39:01.904Z,6.35
2018-03-01T14:41:28.740Z,4.80
2018-03-01T14:43:55.907Z,6.90
2018-03-01T14:46:22.988Z,5.45
2018-03-01T14:48:49.837Z,7.03
2018-03-01T14:51:17.033Z,5.05
2018-03-01T14:53:43.863Z,9.05
2018-03-01T14:56:10.915Z,6.85
2018-03-01T14:58:37.866Z,5.90
2018-03-01T15:01:04.643Z,6.07
2018-03-01T15:03:31.467Z,5.72
2018-03-01T15:05:58.328Z,3.62
2018-03-01T15:08:25.140Z,3.75
2018-03-01T15:10:51.980Z,3.70
2018-03-01T15:13:19.128Z,3.72
2018-03-01T15:15:45.933Z,4.93
2018-03-01T15:18:12.743Z,4.65
2018-03-01T15:20:39.859Z,4.90
2018-03-01T15:23:07.020Z,4.25
2018-03-01T15:25:33.856Z,6.60
2018-03-01T15:28:01.008Z,6.10
2018-03-01T15:30:27.856Z,5.80
2018-03-01T15:32:54.697Z,4.87
2018-03-01T15:35:21.555Z,3.00
2018-03-01T15:37:48.393Z,3.70
2018-03-01T15:40:15.199Z,3.90
2018-03-01T15:42:42.092Z,4.43
2018-03-01T15:45:08.933Z,7.33
2018-03-01T15:47:35.777Z,4.50
2018-03-01T15:50:02.620Z,6.90
2018-03-01T15:52:29.465Z,3.20
2018-03-01T15:54:56.305Z,3.87
2018-03-01T15:57:23.432Z,4.40
2018-03-01T15:59:50.483Z,4.07
2018-03-01T16:02:17.325Z,5.55
2018-03-01T16:04:44.163Z,5.53
2018-03-01T16:07:11.008Z,7.40
2018-03-01T16:09:37.856Z,3.62
2018-03-01T16:12:05.004Z,4.37
2018-03-01T16:14:31.832Z,4.15
2018-03-01T16:16:58.632Z,5.15
2018-03-01T16:19:25.479Z,5.80
2018-03-01T16:21:52.323Z,4.37
2018-03-01T16:24:19.419Z,4.65
2018-03-01T16:26:46.289Z,4.40
2018-03-01T16:29:13.107Z,4.50
2018-03-01T16:31:39.945Z,5.20
2018-03-01T16:34:06.799Z,2.67
2018-03-01T16:36:33.616Z,3.97
2018-03-01T16:39:00.793Z,4.25
2018-03-01T16:41:27.650Z,4.25
2018-03-01T16:43:54.783Z,5.15
2018-03-01T16:46:21.633Z,3.22
2018-03-01T16:48:48.512Z,4.30
2018-03-01T16:51:15.624Z,3.62
2018-03-01T16:53:42.784Z,3.87
2018-03-01T16:56:09.644Z,3.58
2018-03-01T16:58:36.483Z,3.17
2018-03-01T17:01:03.307Z,5.55
2018-03-01T17:03:30.451Z,3.78
2018-03-01T17:05:57.305Z,4.18
2018-03-01T17:08:24.439Z,6.03
2018-03-01T17:10:51.301Z,3.20
2018-03-01T17:13:18.104Z,4.40
2018-03-01T17:15:44.927Z,4.03
2018-03-01T17:18:12.019Z,4.65
2018-03-01T17:20:39.067Z,3.85
2018-03-01T17:23:05.932Z,3.00
2018-03-01T17:25:32.800Z,3.00
2018-03-01T17:27:59.908Z,3.47
2018-03-01T17:30:26.721Z,3.53
2018-03-01T17:32:53.796Z,4.07
2018-03-01T17:35:20.843Z,5.00
2018-03-01T17:37:47.725Z,3.60
2018-03-01T17:40:14.588Z,3.80
2018-03-01T17:42:41.684Z,4.65
2018-03-01T17:45:08.732Z,2.72
2018-03-01T17:47:35.592Z,3.90
2018-03-01T17:50:02.722Z,3.33
2018-03-01T17:56:33.175Z,3.90
2018-03-01T17:59:00.330Z,4.40
2018-03-01T18:01:27.178Z,2.50
2018-03-01T18:03:54.329Z,3.12
2018-03-01T18:06:21.169Z,8.18
2018-03-01T18:08:48.326Z,3.30
2018-03-01T18:11:15.163Z,2.60
2018-03-01T18:13:41.967Z,2.60
2018-03-01T18:16:08.775Z,3.63
2018-03-01T18:18:35.608Z,4.55
2018-03-01T18:21:02.445Z,3.42
2018-03-01T18:23:29.581Z,5.07
2018-03-01T18:25:56.440Z,5.55
2018-03-01T18:28:23.683Z,3.95
2018-03-01T18:30:50.520Z,3.55
2018-03-01T18:33:17.376Z,3.58
2018-03-01T18:35:44.507Z,6.75
2018-03-01T18:38:11.559Z,4.65
2018-03-01T18:40:38.708Z,3.78
2018-03-01T18:43:05.524Z,3.37
2018-03-01T18:45:32.377Z,4.47
2018-03-01T18:47:59.215Z,3.50
2018-03-01T18:50:26.158Z,2.60
2018-03-01T18:52:53.012Z,4.90
2018-03-01T18:55:20.117Z,5.55
2018-03-01T18:57:46.938Z,3.70
2018-03-01T19:00:13.755Z,3.40
2018-03-01T19:02:40.591Z,4.30
2018-03-01T19:05:07.395Z,6.40
2018-03-01T19:07:34.199Z,2.83
2018-03-01T19:10:01.346Z,3.65
2018-03-01T19:12:28.776Z,4.47
2018-03-01T19:14:55.617Z,4.60
2018-03-01T19:17:22.787Z,4.35
2018-03-01T19:19:49.838Z,3.03
2018-03-01T19:22:16.685Z,3.60
2018-03-01T19:24:43.546Z,2.72
2018-03-01T19:27:10.367Z,3.40
2018-03-01T19:29:37.216Z,3.35
2018-03-01T19:32:04.364Z,3.10
2018-03-01T19:34:31.174Z,3.20
2018-03-01T19:36:58.004Z,4.30
2018-03-01T19:39:24.834Z,2.40
2018-03-01T19:41:51.938Z,2.90
2018-03-01T19:44:19.092Z,3.28
2018-03-01T19:46:45.935Z,4.15
2018-03-01T19:49:12.751Z,3.30
2018-03-01T19:51:39.929Z,3.60
2018-03-01T19:54:06.767Z,3.47
2018-03-01T19:56:33.571Z,5.00
2018-03-01T19:59:00.389Z,6.25
2018-03-01T20:01:27.268Z,10.20
2018-03-01T20:03:54.144Z,5.60
2018-03-01T20:06:20.956Z,7.40
2018-03-01T20:08:47.813Z,4.97
2018-03-01T20:11:14.650Z,3.30
2018-03-01T20:13:41.544Z,5.12
2018-03-01T20:16:08.412Z,3.00
2018-03-01T20:18:35.515Z,4.22
2018-03-01T20:21:02.675Z,6.00
2018-03-01T20:23:29.498Z,3.58
2018-03-01T20:25:56.344Z,2.90
2018-03-01T20:28:23.172Z,4.47
2018-03-01T20:30:50.048Z,4.07
2018-03-01T20:33:16.913Z,4.22
2018-03-01T20:35:43.778Z,3.55
2018-03-01T20:38:10.640Z,3.62
2018-03-01T20:40:37.816Z,3.83
2018-03-01T20:43:04.657Z,4.28
2018-03-01T20:45:31.520Z,3.97
2018-03-01T20:47:58.340Z,3.80
2018-03-01T20:50:25.230Z,5.90
2018-03-01T20:52:52.448Z,4.93
2018-03-01T20:55:19.284Z,3.00
2018-03-01T20:57:46.436Z,4.82
2018-03-01T21:00:13.283Z,4.80
2018-03-01T21:02:40.116Z,4.60
2018-03-01T21:05:06.957Z,4.40
2018-03-01T21:07:33.791Z,3.80
2018-03-01T21:10:00.852Z,5.53
2018-03-01T21:12:28.005Z,4.60
2018-03-01T21:14:54.904Z,5.00
2018-03-01T21:17:22.104Z,6.97
2018-03-01T21:19:48.961Z,4.53
2018-03-01T21:22:15.828Z,4.18
2018-03-01T21:24:42.939Z,5.00
2018-03-01T21:27:09.755Z,3.10
2018-03-01T21:29:36.583Z,4.12
2018-03-01T21:32:03.407Z,4.90
2018-03-01T21:34:30.482Z,4.10
2018-03-01T21:36:57.559Z,4.25
2018-03-01T21:39:24.390Z,4.97
2018-03-01T21:41:51.207Z,7.30
2018-03-01T21:44:18.295Z,6.18
2018-03-01T21:46:51.149Z,4.45
2018-03-01T21:49:18.228Z,6.70
2018-03-01T21:51:45.385Z,4.93
2018-03-01T21:54:12.269Z,7.82
2018-03-01T21:56:39.372Z,5.60
2018-03-01T21:59:06.232Z,7.73
2018-03-01T22:01:33.064Z,5.00
2018-03-01T22:03:59.980Z,5.05
2018-03-01T22:06:26.836Z,7.70
2018-03-01T22:08:53.688Z,4.87
2018-03-01T22:11:22.029Z,5.37
2018-03-01T22:13:49.225Z,5.10
2018-03-01T22:16:16.186Z,5.50
2018-03-01T22:18:43.112Z,6.62
2018-03-01T22:21:09.974Z,8.00
2018-03-01T22:23:36.899Z,7.40
2018-03-01T22:26:04.056Z,6.68
2018-03-01T22:28:30.896Z,5.93
2018-03-01T22:30:57.726Z,4.80
2018-03-01T22:33:24.568Z,6.87
2018-03-01T22:35:51.740Z,5.65
2018-03-01T22:38:18.996Z,6.28
2018-03-01T22:40:45.870Z,4.57
2018-03-01T22:43:12.709Z,5.80
2018-03-01T22:45:39.578Z,6.15
2018-03-01T22:48:06.460Z,5.57
2018-03-01T22:50:33.308Z,4.72
2018-03-01T22:53:00.457Z,6.70
2018-03-01T22:55:27.300Z,6.75
2018-03-01T22:57:54.148Z,4.47
2018-03-01T23:00:27.174Z,8.27
2018-03-01T23:02:54.280Z,6.07
2018-03-01T23:05:21.428Z,6.97
2018-03-01T23:07:48.259Z,6.35
2018-03-01T23:10:15.117Z,5.53
2018-03-01T23:12:41.919Z,6.03
2018-03-01T23:15:08.782Z,4.82
2018-03-01T23:17:35.947Z,8.63
2018-03-01T23:20:02.805Z,6.43
2018-03-01T23:22:29.664Z,8.73
2018-03-01T23:24:56.500Z,5.18
2018-03-01T23:27:23.310Z,5.85
2018-03-01T23:29:50.488Z,7.35
2018-03-01T23:32:17.624Z,6.47
2018-03-01T23:34:44.427Z,6.40
2018-03-01T23:37:11.511Z,6.97
2018-03-01T23:39:38.360Z,5.10
2018-03-01T23:42:05.403Z,6.87
2018-03-01T23:44:32.552Z,8.25
2018-03-01T23:46:59.407Z,9.48
2018-03-01T23:49:26.251Z,6.50
2018-03-01T23:51:53.112Z,7.60
2018-03-01T23:54:19.953Z,6.30
2018-03-01T23:56:46.804Z,8.52
2018-03-01T23:59:13.628Z,7.90
